Time;durP1;ratioP1;P1;durP2;ratioP2;P2;SDS_P1;SDS_P2;PMS_P1;PMS_P2;Temp;Humidity;BMP_temperature;BMP_pressure;BME280_temperature;BME280_humidity;BME280_pressure;Samples;Min_cycle;Max_cycle;Signal;HPM_P1;HPM_P2
2024/03/31 00:00:54;;;;;;;9.60;3.15;;;10.60;99.90;;;;;;4950851;28;20085;-61
2024/03/31 00:03:20;;;;;;;13.52;3.50;;;10.50;99.90;;;;;;4962173;28;20043;-60
2024/03/31 00:05:46;;;;;;;13.35;3.45;;;10.40;99.90;;;;;;4963534;28;20070;-61
2024/03/31 00:08:12;;;;;;;6.90;2.97;;;10.40;99.90;;;;;;4959653;28;20063;-61
2024/03/31 00:10:38;;;;;;;11.88;3.10;;;10.40;99.90;;;;;;4980258;28;20113;-60
2024/03/31 00:13:03;;;;;;;11.15;3.97;;;10.40;99.90;;;;;;4956219;28;20070;-61
2024/03/31 00:15:29;;;;;;;12.00;4.50;;;10.30;99.90;;;;;;4966285;28;20507;-61
2024/03/31 00:17:55;;;;;;;10.15;3.75;;;10.20;99.90;;;;;;4978332;28;20134;-60
2024/03/31 00:20:21;;;;;;;11.27;3.45;;;10.20;99.90;;;;;;4960132;28;20536;-60
2024/03/31 00:22:46;;;;;;;13.43;3.75;;;10.20;99.90;;;;;;4961609;28;20066;-61
2024/03/31 00:25:12;;;;;;;16.15;3.50;;;10.20;99.90;;;;;;4961499;28;20046;-60
2024/03/31 00:27:38;;;;;;;13.88;4.18;;;10.10;99.90;;;;;;4958298;28;20059;-59
2024/03/31 00:30:05;;;;;;;9.30;3.05;;;10.00;99.90;;;;;;4959901;28;20093;-60
2024/03/31 00:32:31;;;;;;;12.90;3.33;;;10.10;99.90;;;;;;4966919;28;20046;-60
2024/03/31 00:34:57;;;;;;;13.27;3.58;;;10.20;99.90;;;;;;4960237;28;20061;-61
2024/03/31 00:37:22;;;;;;;19.17;4.53;;;10.20;99.90;;;;;;4957151;28;20062;-60
2024/03/31 00:39:49;;;;;;;15.88;3.17;;;10.20;99.90;;;;;;4956811;28;20105;-61
2024/03/31 00:42:15;;;;;;;12.45;4.32;;;10.10;99.90;;;;;;4963074;28;20046;-61
2024/03/31 00:44:41;;;;;;;9.00;3.30;;;10.00;99.90;;;;;;4962231;28;20089;-61
2024/03/31 00:47:07;;;;;;;20.38;4.63;;;9.90;99.90;;;;;;4957316;28;20089;-61
2024/03/31 00:49:32;;;;;;;14.02;4.30;;;9.90;99.90;;;;;;4960239;28;20563;-60
2024/03/31 00:51:58;;;;;;;9.13;3.88;;;10.00;99.90;;;;;;4960860;28;20062;-61
2024/03/31 00:54:24;;;;;;;7.90;3.80;;;10.10;99.90;;;;;;4961155;28;20065;-60
2024/03/31 00:56:49;;;;;;;17.42;5.15;;;10.10;99.90;;;;;;4959145;28;20105;-59
2024/03/31 00:59:15;;;;;;;12.77;5.47;;;10.10;99.90;;;;;;4961152;28;20046;-60
2024/03/31 01:01:41;;;;;;;14.98;6.63;;;10.20;99.90;;;;;;4951039;28;20055;-60
2024/03/31 01:04:07;;;;;;;14.85;6.90;;;10.20;99.90;;;;;;4944152;28;20271;-60
2024/03/31 01:06:33;;;;;;;17.65;7.75;;;10.20;99.90;;;;;;4957657;28;20050;-61
2024/03/31 01:08:59;;;;;;;17.70;6.85;;;10.20;99.90;;;;;;4964477;28;20058;-61
2024/03/31 01:11:26;;;;;;;10.90;5.65;;;10.20;99.90;;;;;;4958666;28;20101;-60
2024/03/31 01:13:53;;;;;;;16.80;5.97;;;10.20;99.90;;;;;;4963557;28;20510;-60
2024/03/31 01:16:19;;;;;;;12.57;5.05;;;10.10;99.90;;;;;;4958767;28;20482;-61
2024/03/31 01:18:44;;;;;;;12.90;5.50;;;10.00;99.90;;;;;;4959279;28;20089;-61
2024/03/31 01:21:12;;;;;;;14.20;5.45;;;9.90;99.90;;;;;;4959786;28;20504;-61
2024/03/31 01:23:43;;;;;;;16.17;5.45;;;9.70;99.90;;;;;;4964271;28;20392;-61
2024/03/31 01:26:10;;;;;;;15.90;5.90;;;9.60;99.90;;;;;;4957557;28;20255;-61
2024/03/31 01:28:36;;;;;;;16.42;5.82;;;9.50;99.90;;;;;;4957648;28;20054;-60
2024/03/31 01:31:02;;;;;;;22.25;6.18;;;9.40;99.90;;;;;;4959357;28;20480;-60
2024/03/31 01:33:28;;;;;;;19.52;6.40;;;9.30;99.90;;;;;;4958101;28;20062;-60
2024/03/31 01:35:59;;;;;;;18.65;6.55;;;9.30;99.90;;;;;;4962692;28;20062;-57
2024/03/31 01:38:25;;;;;;;17.50;6.13;;;9.20;99.90;;;;;;4958897;28;20046;-60
2024/03/31 01:40:50;;;;;;;13.23;7.25;;;9.10;99.90;;;;;;4956843;28;20047;-60
2024/03/31 01:43:16;;;;;;;21.00;7.65;;;9.10;99.90;;;;;;4954941;28;20507;-60
2024/03/31 01:45:42;;;;;;;15.43;7.43;;;9.00;99.90;;;;;;4967331;28;20404;-60
2024/03/31 01:48:07;;;;;;;20.38;7.72;;;8.90;99.90;;;;;;4958312;28;20530;-61
2024/03/31 01:50:33;;;;;;;17.13;8.07;;;8.90;99.90;;;;;;4960148;28;20054;-61
2024/03/31 01:52:59;;;;;;;21.25;7.72;;;8.80;99.90;;;;;;4958719;28;20059;-60
2024/03/31 01:55:25;;;;;;;18.02;7.68;;;8.80;99.90;;;;;;4962570;28;20622;-61
2024/03/31 01:57:51;;;;;;;12.32;6.53;;;8.70;99.90;;;;;;4955250;28;20050;-60
2024/03/31 02:00:17;;;;;;;18.92;6.88;;;8.70;99.90;;;;;;4957017;28;20170;-60
2024/03/31 02:02:42;;;;;;;14.07;5.80;;;8.60;99.90;;;;;;4957645;28;20050;-60
2024/03/31 02:05:08;;;;;;;13.95;5.75;;;8.60;99.90;;;;;;4954790;28;21349;-60
2024/03/31 02:07:34;;;;;;;16.23;5.22;;;8.50;99.90;;;;;;4957353;28;20050;-60
2024/03/31 02:10:00;;;;;;;17.63;6.55;;;8.50;99.90;;;;;;4959206;28;20058;-60
2024/03/31 02:12:25;;;;;;;14.52;6.03;;;8.40;99.90;;;;;;4939741;28;20496;-60
2024/03/31 02:14:51;;;;;;;10.95;5.45;;;8.40;99.90;;;;;;4962393;28;20503;-60
2024/03/31 02:17:17;;;;;;;19.80;6.53;;;8.30;99.90;;;;;;4960064;28;20046;-59
2024/03/31 02:19:42;;;;;;;14.02;5.93;;;8.30;99.90;;;;;;4956068;28;20055;-60
2024/03/31 02:22:08;;;;;;;13.88;5.45;;;8.30;99.90;;;;;;4967326;28;20038;-60
2024/03/31 02:24:34;;;;;;;15.45;5.78;;;8.30;99.90;;;;;;4959533;28;20053;-60
2024/03/31 02:27:00;;;;;;;15.00;4.85;;;8.20;99.90;;;;;;4958795;28;20058;-60
2024/03/31 02:29:26;;;;;;;13.73;5.75;;;8.30;99.90;;;;;;4949712;28;20101;-60
2024/03/31 02:31:51;;;;;;;13.88;5.68;;;8.20;99.90;;;;;;4960990;28;20078;-60
2024/03/31 02:34:20;;;;;;;16.42;6.40;;;8.20;99.90;;;;;;4956267;28;20061;-60
2024/03/31 02:36:48;;;;;;;11.77;5.90;;;8.10;99.90;;;;;;4969139;28;20054;-61
2024/03/31 02:39:15;;;;;;;10.93;5.50;;;8.10;99.90;;;;;;4960165;28;20097;-60
2024/03/31 02:41:41;;;;;;;12.48;5.28;;;8.20;99.90;;;;;;4960428;28;20047;-60
2024/03/31 02:44:06;;;;;;;12.73;5.60;;;8.10;99.90;;;;;;4959296;28;20538;-60
2024/03/31 02:46:32;;;;;;;10.45;5.90;;;8.10;99.90;;;;;;4960253;28;20137;-60
2024/03/31 02:48:58;;;;;;;12.63;5.72;;;8.10;99.90;;;;;;4957520;28;20059;-60
2024/03/31 02:51:25;;;;;;;9.30;5.07;;;8.10;99.90;;;;;;4961255;28;20050;-58
2024/03/31 02:53:51;;;;;;;12.75;5.80;;;8.10;99.90;;;;;;4959860;28;20063;-60
2024/03/31 02:56:16;;;;;;;15.60;5.22;;;8.20;99.90;;;;;;4956415;28;20443;-60
2024/03/31 02:58:42;;;;;;;12.52;4.40;;;8.20;99.90;;;;;;4959047;28;20460;-59
2024/03/31 03:01:08;;;;;;;11.85;5.03;;;8.10;99.90;;;;;;4961142;28;20492;-60
2024/03/31 03:03:34;;;;;;;8.98;4.55;;;8.10;99.90;;;;;;4958143;28;20051;-59
2024/03/31 03:06:00;;;;;;;18.70;4.88;;;8.10;99.90;;;;;;4962209;28;20093;-60
2024/03/31 03:08:25;;;;;;;13.77;4.72;;;8.10;99.90;;;;;;4957900;28;20180;-60
2024/03/31 03:10:55;;;;;;;10.95;3.90;;;8.20;99.90;;;;;;4960834;28;20086;-59
2024/03/31 03:13:22;;;;;;;18.63;4.38;;;8.20;99.90;;;;;;4959897;28;20047;-60
2024/03/31 03:15:48;;;;;;;18.38;4.18;;;8.20;99.90;;;;;;4956393;28;20096;-60
2024/03/31 03:18:15;;;;;;;13.85;3.05;;;8.20;99.90;;;;;;4957989;28;20051;-60
2024/03/31 03:20:40;;;;;;;7.93;2.45;;;8.10;99.90;;;;;;4957904;28;20047;-60
2024/03/31 03:23:07;;;;;;;19.98;3.10;;;8.10;99.90;;;;;;4956698;28;20042;-58
2024/03/31 03:25:32;;;;;;;16.50;3.08;;;8.10;99.90;;;;;;4954670;28;20050;-60
2024/03/31 03:27:58;;;;;;;19.33;3.42;;;8.10;99.90;;;;;;4963479;28;20057;-60
2024/03/31 03:30:24;;;;;;;14.15;3.20;;;8.00;99.90;;;;;;4955224;28;20050;-60
2024/03/31 03:32:53;;;;;;;12.75;2.88;;;8.00;99.90;;;;;;4957020;28;20641;-60
2024/03/31 03:35:19;;;;;;;14.95;3.35;;;8.00;99.90;;;;;;4958661;28;20419;-59
2024/03/31 03:37:45;;;;;;;12.00;4.68;;;7.90;99.90;;;;;;4957440;28;20042;-59
2024/03/31 03:40:12;;;;;;;14.00;4.50;;;7.90;99.90;;;;;;4959107;28;20065;-60
2024/03/31 03:42:38;;;;;;;14.48;4.40;;;7.80;99.90;;;;;;4961494;28;20065;-60
2024/03/31 03:45:05;;;;;;;14.07;5.30;;;7.80;99.90;;;;;;4959903;28;20640;-59
2024/03/31 03:47:30;;;;;;;22.95;4.35;;;7.80;99.90;;;;;;4959655;28;20050;-60
2024/03/31 03:49:56;;;;;;;13.50;3.53;;;7.90;99.90;;;;;;4960302;28;20057;-59
2024/03/31 03:52:22;;;;;;;15.38;4.03;;;7.90;99.90;;;;;;4956887;28;20109;-60
2024/03/31 03:54:48;;;;;;;20.10;4.10;;;7.90;99.90;;;;;;4955195;28;20501;-60
2024/03/31 03:57:14;;;;;;;11.23;4.95;;;8.00;99.90;;;;;;4956312;28;20699;-59
2024/03/31 03:59:40;;;;;;;16.35;4.68;;;8.10;99.90;;;;;;4959128;28;20557;-60
2024/03/31 04:02:07;;;;;;;18.17;5.00;;;8.20;99.90;;;;;;4955222;28;20427;-60
2024/03/31 04:04:33;;;;;;;9.63;4.25;;;8.20;99.90;;;;;;4946267;28;20105;-60
2024/03/31 04:06:59;;;;;;;8.40;3.95;;;8.30;99.90;;;;;;4958821;28;20118;-60
2024/03/31 04:09:25;;;;;;;12.93;3.45;;;8.40;99.90;;;;;;4953379;28;20066;-59
2024/03/31 04:11:50;;;;;;;17.35;4.30;;;8.50;99.90;;;;;;4961035;28;20389;-61
2024/03/31 04:14:16;;;;;;;13.95;4.15;;;8.50;99.90;;;;;;4960941;28;20050;-60
2024/03/31 04:16:42;;;;;;;10.55;3.33;;;8.50;99.90;;;;;;4961045;28;20059;-60
2024/03/31 04:19:08;;;;;;;11.75;3.50;;;8.60;99.90;;;;;;4970432;28;20045;-60
2024/03/31 04:21:34;;;;;;;13.65;4.10;;;8.70;99.90;;;;;;4962299;28;20097;-60
2024/03/31 04:24:01;;;;;;;19.95;4.03;;;8.80;99.90;;;;;;4968305;28;20451;-60
2024/03/31 04:26:27;;;;;;;13.82;3.03;;;8.70;99.90;;;;;;4963706;28;20042;-60
2024/03/31 04:28:53;;;;;;;14.02;3.05;;;8.80;99.90;;;;;;4962143;28;20140;-60
2024/03/31 04:31:19;;;;;;;16.45;3.70;;;8.90;99.90;;;;;;4961924;28;20059;-58
2024/03/31 04:33:45;;;;;;;11.43;2.88;;;8.90;99.90;;;;;;4963090;28;20150;-60
2024/03/31 04:36:11;;;;;;;16.08;3.35;;;8.90;99.90;;;;;;4964062;28;20058;-60
2024/03/31 04:38:37;;;;;;;16.92;4.30;;;9.00;99.90;;;;;;4955956;28;20039;-60
2024/03/31 04:41:03;;;;;;;27.52;6.05;;;8.90;99.90;;;;;;4961230;28;20047;-60
2024/03/31 04:43:29;;;;;;;24.88;6.30;;;8.90;99.90;;;;;;4959329;28;20054;-60
2024/03/31 04:46:03;;;;;;;28.92;7.13;;;9.00;99.90;;;;;;4961997;28;20054;-58
2024/03/31 04:48:30;;;;;;;36.10;9.00;;;8.80;99.90;;;;;;4963312;28;20050;-60
2024/03/31 04:50:55;;;;;;;140.15;13.13;;;8.80;99.90;;;;;;4965695;28;20061;-60
2024/03/31 04:53:21;;;;;;;165.05;15.38;;;8.80;99.90;;;;;;4959419;28;20058;-61
2024/03/31 04:55:47;;;;;;;143.68;15.18;;;8.50;99.90;;;;;;4962160;28;20086;-61
2024/03/31 04:58:13;;;;;;;113.70;15.13;;;8.50;99.90;;;;;;4958414;28;20121;-60
2024/03/31 05:00:39;;;;;;;154.93;18.17;;;8.50;99.90;;;;;;4957859;28;20066;-60
2024/03/31 05:03:04;;;;;;;126.93;17.30;;;8.40;99.90;;;;;;4961133;28;20058;-60
2024/03/31 05:05:35;;;;;;;84.45;14.68;;;8.50;99.90;;;;;;4956629;28;20058;-60
2024/03/31 05:08:00;;;;;;;79.05;14.68;;;8.50;99.90;;;;;;4959233;28;20054;-60
2024/03/31 05:10:26;;;;;;;147.38;16.77;;;8.50;99.90;;;;;;4959300;28;20050;-60
2024/03/31 05:12:52;;;;;;;186.52;19.05;;;8.40;99.90;;;;;;4962642;28;20055;-59
2024/03/31 05:15:18;;;;;;;129.02;15.73;;;8.30;99.90;;;;;;4962640;28;20058;-61
2024/03/31 05:17:43;;;;;;;127.07;15.15;;;8.30;99.90;;;;;;4963181;28;20057;-60
2024/03/31 05:20:09;;;;;;;163.50;17.58;;;8.20;99.90;;;;;;4962819;28;20096;-60
2024/03/31 05:22:35;;;;;;;121.93;16.90;;;8.20;99.90;;;;;;4959062;28;20122;-60
2024/03/31 05:25:01;;;;;;;111.75;14.95;;;8.30;99.90;;;;;;4963515;28;20138;-60
2024/03/31 05:27:26;;;;;;;143.15;17.42;;;8.40;99.90;;;;;;4955934;28;20051;-60
2024/03/31 05:29:52;;;;;;;45.63;15.05;;;8.40;99.90;;;;;;4961467;28;20070;-61
2024/03/31 05:32:18;;;;;;;49.88;14.63;;;8.60;99.90;;;;;;4956620;28;20712;-60
2024/03/31 05:34:44;;;;;;;41.30;14.23;;;8.70;99.90;;;;;;4961915;28;20062;-59
2024/03/31 05:37:09;;;;;;;23.52;12.77;;;8.80;99.90;;;;;;4964357;28;20582;-61
2024/03/31 05:39:35;;;;;;;24.55;12.10;;;8.90;99.90;;;;;;4961802;28;20407;-61
2024/03/31 05:42:01;;;;;;;18.15;11.40;;;9.00;99.90;;;;;;4969761;28;20529;-61
2024/03/31 05:44:27;;;;;;;17.92;10.60;;;9.10;99.90;;;;;;4961615;28;20065;-61
2024/03/31 05:46:52;;;;;;;17.10;10.30;;;9.20;99.90;;;;;;4974775;28;20050;-61
2024/03/31 05:49:18;;;;;;;21.88;9.32;;;9.30;99.90;;;;;;4958866;28;20054;-61
2024/03/31 05:51:44;;;;;;;14.73;8.32;;;9.30;99.90;;;;;;4966998;28;20446;-61
2024/03/31 05:54:10;;;;;;;16.08;8.77;;;9.40;99.90;;;;;;4957475;28;20054;-60
2024/03/31 05:56:35;;;;;;;21.30;8.57;;;9.40;99.90;;;;;;4958968;28;20062;-61
2024/03/31 05:59:02;;;;;;;14.15;8.77;;;9.40;99.90;;;;;;4955412;28;20444;-61
2024/03/31 06:01:28;;;;;;;16.65;9.30;;;9.50;99.90;;;;;;4960513;28;20424;-61
2024/03/31 06:03:54;;;;;;;16.33;9.77;;;9.60;99.90;;;;;;4959060;28;20051;-61
2024/03/31 06:06:19;;;;;;;16.85;10.18;;;9.60;99.90;;;;;;4960343;28;20046;-61
2024/03/31 06:08:45;;;;;;;19.60;9.20;;;9.60;99.90;;;;;;4960335;28;20101;-61
2024/03/31 06:11:11;;;;;;;14.88;9.52;;;9.70;99.90;;;;;;4958543;28;20065;-61
2024/03/31 06:13:37;;;;;;;17.70;9.00;;;9.70;99.90;;;;;;4967443;28;20069;-61
2024/03/31 06:16:03;;;;;;;17.45;9.18;;;9.70;99.90;;;;;;4962255;28;20082;-60
2024/03/31 06:18:28;;;;;;;19.75;9.88;;;9.80;99.90;;;;;;4956395;28;20122;-61
2024/03/31 06:20:54;;;;;;;19.05;9.85;;;9.90;99.90;;;;;;4964676;28;20460;-61
2024/03/31 06:23:20;;;;;;;20.83;9.95;;;9.90;99.90;;;;;;4963348;28;20051;-61
2024/03/31 06:25:58;;;;;;;20.05;10.15;;;10.00;99.90;;;;;;4962129;28;20058;-61
2024/03/31 06:28:24;;;;;;;22.45;11.88;;;10.10;99.90;;;;;;4962948;28;20120;-61
2024/03/31 06:30:50;;;;;;;26.92;11.20;;;10.10;99.90;;;;;;4958794;28;20137;-60
2024/03/31 06:33:16;;;;;;;23.05;10.57;;;10.10;99.90;;;;;;4958677;28;20050;-61
2024/03/31 06:35:41;;;;;;;21.02;10.50;;;10.20;99.90;;;;;;4960782;28;20086;-61
2024/03/31 06:38:07;;;;;;;28.42;12.65;;;10.20;99.90;;;;;;4958538;28;20061;-61
2024/03/31 06:40:33;;;;;;;20.17;11.40;;;10.10;99.90;;;;;;4956189;28;20047;-61
2024/03/31 06:42:59;;;;;;;25.38;11.38;;;10.00;99.90;;;;;;4958966;28;20093;-61
2024/03/31 06:45:26;;;;;;;26.08;11.48;;;9.90;99.90;;;;;;4955106;28;20058;-61
2024/03/31 06:47:52;;;;;;;29.80;11.40;;;10.10;99.90;;;;;;4957995;28;20050;-60
2024/03/31 06:50:17;;;;;;;22.23;9.85;;;10.20;99.90;;;;;;4956959;28;20051;-61
2024/03/31 06:52:43;;;;;;;22.92;11.23;;;10.30;99.90;;;;;;4977217;28;20073;-60
2024/03/31 06:55:09;;;;;;;27.30;10.75;;;10.40;99.90;;;;;;4956458;28;20053;-60
2024/03/31 06:57:35;;;;;;;18.48;9.75;;;10.40;99.90;;;;;;4957337;28;20109;-60
2024/03/31 07:00:00;;;;;;;28.17;11.55;;;10.50;99.90;;;;;;4954575;28;20062;-61
2024/03/31 07:02:26;;;;;;;26.27;11.43;;;10.40;99.90;;;;;;4959010;28;20073;-60
2024/03/31 07:04:52;;;;;;;31.67;12.30;;;10.40;99.90;;;;;;4962643;28;20919;-60
2024/03/31 07:07:18;;;;;;;28.13;14.18;;;10.40;99.90;;;;;;4956376;28;20465;-60
2024/03/31 07:09:44;;;;;;;35.90;14.73;;;10.30;99.90;;;;;;4959795;28;20073;-61
2024/03/31 07:12:10;;;;;;;33.78;13.50;;;10.20;99.90;;;;;;4957411;28;20054;-60
2024/03/31 07:14:36;;;;;;;33.05;15.10;;;10.20;99.90;;;;;;4960414;28;20104;-60
2024/03/31 07:17:02;;;;;;;27.90;13.13;;;10.10;99.90;;;;;;4959399;28;20431;-61
2024/03/31 07:19:27;;;;;;;33.55;12.27;;;9.90;99.90;;;;;;4962068;28;20050;-61
2024/03/31 07:21:53;;;;;;;25.67;12.90;;;9.90;99.90;;;;;;4957875;28;20101;-61
2024/03/31 07:24:19;;;;;;;29.48;14.00;;;9.80;99.90;;;;;;4964687;28;20054;-60
2024/03/31 07:26:45;;;;;;;35.85;13.25;;;9.70;99.90;;;;;;4960221;28;20051;-61
2024/03/31 07:29:10;;;;;;;31.45;15.02;;;9.60;99.90;;;;;;4964107;28;20427;-60
2024/03/31 07:31:36;;;;;;;36.22;13.95;;;9.80;99.90;;;;;;4958642;28;20086;-60
2024/03/31 07:34:04;;;;;;;30.02;12.85;;;9.70;99.90;;;;;;4962760;28;20535;-61
2024/03/31 07:36:30;;;;;;;33.92;15.05;;;9.60;99.90;;;;;;4953032;28;20612;-61
2024/03/31 07:38:56;;;;;;;29.63;14.55;;;9.50;99.90;;;;;;4959112;28;20051;-60
2024/03/31 07:41:22;;;;;;;26.70;13.82;;;9.50;99.90;;;;;;4959951;28;20073;-60
2024/03/31 07:43:49;;;;;;;45.22;15.07;;;9.60;99.90;;;;;;4964005;28;20046;-60
2024/03/31 07:46:14;;;;;;;35.85;14.45;;;9.60;99.90;;;;;;4959784;28;20057;-60
2024/03/31 07:48:40;;;;;;;27.48;14.32;;;9.70;99.90;;;;;;4961829;28;20062;-61
2024/03/31 07:51:06;;;;;;;30.30;13.27;;;9.90;99.90;;;;;;4959164;28;20058;-61
2024/03/31 07:53:32;;;;;;;27.48;13.23;;;10.20;99.90;;;;;;4962888;28;20065;-61
2024/03/31 07:55:58;;;;;;;20.88;12.15;;;10.20;99.90;;;;;;4960682;28;20476;-60
2024/03/31 07:58:24;;;;;;;26.80;13.63;;;10.40;99.90;;;;;;4964540;28;20078;-61
2024/03/31 08:00:52;;;;;;;24.17;12.90;;;10.60;99.90;;;;;;4959946;28;20054;-61
2024/03/31 08:03:18;;;;;;;24.83;13.93;;;10.70;99.90;;;;;;4962637;28;20054;-61
2024/03/31 08:05:43;;;;;;;27.70;11.52;;;10.80;99.90;;;;;;4960901;28;20058;-61
2024/03/31 08:08:10;;;;;;;17.05;10.20;;;10.90;99.90;;;;;;4963933;28;20097;-61
2024/03/31 08:10:35;;;;;;;22.58;11.38;;;10.90;99.90;;;;;;4962073;28;20062;-61
2024/03/31 08:13:01;;;;;;;22.73;11.02;;;11.00;99.90;;;;;;4962446;28;20399;-61
2024/03/31 08:15:27;;;;;;;22.73;11.93;;;11.10;99.90;;;;;;4960854;28;20077;-61
2024/03/31 08:17:54;;;;;;;22.48;12.50;;;11.10;99.90;;;;;;4958158;28;20050;-61
2024/03/31 08:20:19;;;;;;;29.65;13.50;;;11.20;99.90;;;;;;4960184;28;20423;-61
2024/03/31 08:22:45;;;;;;;23.33;11.57;;;11.30;99.90;;;;;;4962932;28;20050;-60
2024/03/31 08:25:11;;;;;;;29.17;12.18;;;11.40;99.90;;;;;;4959578;28;20066;-61
2024/03/31 08:27:37;;;;;;;29.00;13.15;;;11.40;99.90;;;;;;4960720;28;20058;-61
2024/03/31 08:30:03;;;;;;;24.55;11.52;;;11.30;99.90;;;;;;4959232;28;20057;-61
2024/03/31 08:32:29;;;;;;;26.33;12.77;;;11.50;99.90;;;;;;4962906;28;20055;-60
2024/03/31 08:34:54;;;;;;;28.00;12.50;;;11.80;99.90;;;;;;4960951;28;20046;-61
2024/03/31 08:37:20;;;;;;;20.30;10.98;;;11.70;99.90;;;;;;4960272;28;20055;-61
2024/03/31 08:39:46;;;;;;;19.60;12.00;;;11.70;99.90;;;;;;4960697;28;20050;-61
2024/03/31 08:42:29;;;;;;;22.67;11.48;;;11.80;99.90;;;;;;4946540;28;20059;-61
2024/03/31 08:44:56;;;;;;;24.83;12.85;;;11.70;99.90;;;;;;4964313;28;20047;-61
2024/03/31 08:47:31;;;;;;;29.20;14.35;;;11.70;99.90;;;;;;4963237;28;20046;-61
2024/03/31 08:49:58;;;;;;;27.98;13.00;;;11.60;99.90;;;;;;4961382;28;20059;-61
2024/03/31 08:52:27;;;;;;;30.50;13.65;;;11.50;99.90;;;;;;4964922;28;20039;-61
2024/03/31 08:54:57;;;;;;;28.25;13.88;;;11.40;99.90;;;;;;4979965;28;20488;-61
2024/03/31 08:57:23;;;;;;;20.85;12.40;;;11.30;99.90;;;;;;4960191;28;20062;-61
2024/03/31 08:59:49;;;;;;;30.95;12.43;;;11.30;99.90;;;;;;4962441;28;20139;-61
2024/03/31 09:02:25;;;;;;;23.60;12.13;;;11.30;99.90;;;;;;4964862;28;20043;-61
2024/03/31 09:04:52;;;;;;;24.80;12.23;;;11.30;99.90;;;;;;4970242;28;20082;-61
2024/03/31 09:07:18;;;;;;;29.08;12.70;;;11.20;99.90;;;;;;4961241;28;20054;-61
2024/03/31 09:09:44;;;;;;;24.52;12.90;;;11.30;99.90;;;;;;4955170;28;20051;-61
2024/03/31 09:12:10;;;;;;;21.25;11.73;;;11.30;99.90;;;;;;4957064;28;20125;-62
2024/03/31 09:14:42;;;;;;;21.88;12.60;;;11.40;99.90;;;;;;4948303;28;20450;-61
2024/03/31 09:17:13;;;;;;;25.00;11.38;;;11.40;99.90;;;;;;4966870;28;20211;-60
2024/03/31 09:19:39;;;;;;;22.40;11.38;;;11.40;99.90;;;;;;4958939;28;20050;-61
2024/03/31 09:22:05;;;;;;;21.10;10.98;;;11.30;99.90;;;;;;4955023;28;20407;-61
2024/03/31 09:24:32;;;;;;;19.05;11.27;;;11.30;99.90;;;;;;4958759;28;20046;-61
2024/03/31 09:26:59;;;;;;;25.52;10.40;;;11.20;99.90;;;;;;4963263;28;20427;-60
2024/03/31 09:29:26;;;;;;;21.23;10.88;;;11.30;99.90;;;;;;4958542;28;20046;-61
2024/03/31 09:32:05;;;;;;;32.78;12.05;;;11.30;99.90;;;;;;4961696;28;20050;-61
2024/03/31 09:34:31;;;;;;;28.88;13.02;;;11.40;99.90;;;;;;4978449;28;20661;-61
2024/03/31 09:36:57;;;;;;;27.33;13.27;;;11.30;99.90;;;;;;4962024;28;20057;-60
2024/03/31 09:39:24;;;;;;;28.00;12.77;;;11.40;99.90;;;;;;4968310;28;20054;-61
2024/03/31 09:41:53;;;;;;;23.92;11.48;;;11.40;99.90;;;;;;4960288;28;20057;-57
2024/03/31 09:44:19;;;;;;;29.23;12.73;;;11.20;99.90;;;;;;4961730;28;20078;-58
2024/03/31 09:46:46;;;;;;;23.60;11.95;;;11.00;99.90;;;;;;4964934;28;20057;-58
2024/03/31 09:49:20;;;;;;;30.52;12.13;;;11.30;99.90;;;;;;4960660;28;20070;-57
2024/03/31 09:51:48;;;;;;;24.40;12.32;;;11.40;99.90;;;;;;4974245;28;20058;-59
2024/03/31 09:54:23;;;;;;;31.35;12.15;;;11.60;99.90;;;;;;4960613;28;20050;-59
2024/03/31 09:57:00;;;;;;;20.65;12.70;;;11.70;99.90;;;;;;4959923;28;20597;-57
2024/03/31 09:59:27;;;;;;;21.73;10.63;;;11.70;99.90;;;;;;4958834;28;20053;-58
2024/03/31 10:01:54;;;;;;;27.02;12.93;;;11.80;99.90;;;;;;4944934;28;20158;-58
2024/03/31 10:04:31;;;;;;;24.65;10.43;;;11.90;99.90;;;;;;4960472;28;20050;-59
2024/03/31 10:06:58;;;;;;;26.50;11.40;;;11.90;99.90;;;;;;4959365;28;20058;-61
2024/03/31 10:09:25;;;;;;;28.92;11.50;;;11.90;99.90;;;;;;4958955;28;20058;-61
2024/03/31 10:11:53;;;;;;;28.50;12.07;;;11.90;99.90;;;;;;4957149;28;20050;-61
2024/03/31 10:14:21;;;;;;;26.25;13.45;;;11.70;99.90;;;;;;4962344;28;20672;-60
2024/03/31 10:16:47;;;;;;;21.88;11.07;;;11.60;99.90;;;;;;4961561;28;20066;-61
2024/03/31 10:19:16;;;;;;;24.00;11.18;;;11.70;99.90;;;;;;4964366;28;20054;-61
2024/03/31 10:21:43;;;;;;;24.02;12.10;;;11.70;99.90;;;;;;4958895;28;20451;-60
2024/03/31 10:24:13;;;;;;;23.80;12.35;;;11.80;99.90;;;;;;4958434;28;20117;-61
2024/03/31 10:26:39;;;;;;;21.58;11.65;;;11.90;99.90;;;;;;4956637;28;20047;-61
2024/03/31 10:29:05;;;;;;;24.30;11.23;;;12.00;99.90;;;;;;4959708;28;20058;-61
2024/03/31 10:31:32;;;;;;;19.95;10.63;;;12.20;99.90;;;;;;4966049;28;20046;-61
2024/03/31 10:33:59;;;;;;;30.05;11.70;;;12.30;99.90;;;;;;4958130;28;20415;-61
2024/03/31 10:36:28;;;;;;;24.42;11.50;;;12.50;99.90;;;;;;4963337;28;20050;-61
2024/03/31 10:38:54;;;;;;;21.77;11.55;;;12.60;99.90;;;;;;4962884;28;20496;-61
2024/03/31 10:41:21;;;;;;;26.40;11.35;;;12.80;99.90;;;;;;4957370;28;20050;-61
2024/03/31 10:43:47;;;;;;;21.90;10.52;;;12.90;99.90;;;;;;4956798;28;20271;-60
2024/03/31 10:46:13;;;;;;;24.30;9.90;;;12.90;99.90;;;;;;4962395;28;20058;-61
2024/03/31 10:48:40;;;;;;;21.95;9.27;;;12.90;99.90;;;;;;4958540;28;20051;-61
2024/03/31 10:51:13;;;;;;;18.35;8.32;;;12.90;99.90;;;;;;4960511;28;20414;-61
2024/03/31 10:53:39;;;;;;;21.15;9.07;;;13.20;99.90;;;;;;4959515;28;20051;-60
2024/03/31 10:56:07;;;;;;;16.95;8.30;;;13.30;99.90;;;;;;4959332;28;20424;-61
2024/03/31 10:58:33;;;;;;;17.92;7.90;;;13.40;99.90;;;;;;4957956;28;20050;-60
2024/03/31 11:01:02;;;;;;;25.67;9.57;;;13.40;99.90;;;;;;4961559;28;20104;-61
2024/03/31 11:03:31;;;;;;;16.83;8.15;;;13.40;99.90;;;;;;4962273;28;20050;-61
2024/03/31 11:05:58;;;;;;;16.23;8.05;;;13.50;99.90;;;;;;4959736;28;20047;-61
2024/03/31 11:08:24;;;;;;;20.27;8.27;;;13.70;99.90;;;;;;4957837;28;20054;-61
2024/03/31 11:10:51;;;;;;;22.42;7.63;;;13.70;99.90;;;;;;4959205;28;20396;-59
2024/03/31 11:13:17;;;;;;;15.50;7.47;;;13.50;99.90;;;;;;4960449;28;20054;-60
2024/03/31 11:15:43;;;;;;;16.98;8.32;;;13.50;99.90;;;;;;4961614;28;20538;-60
2024/03/31 11:18:10;;;;;;;22.10;8.52;;;13.90;99.90;;;;;;4976266;28;20055;-60
2024/03/31 11:20:43;;;;;;;20.33;8.27;;;14.20;99.90;;;;;;4956644;28;20054;-61
2024/03/31 11:23:12;;;;;;;28.40;8.70;;;14.30;99.90;;;;;;4964129;28;20578;-61
2024/03/31 11:25:42;;;;;;;26.20;8.88;;;14.70;99.90;;;;;;4959916;28;20102;-61
2024/03/31 11:28:13;;;;;;;20.07;8.53;;;14.80;99.90;;;;;;4964625;28;20050;-61
2024/03/31 11:30:39;;;;;;;19.95;7.70;;;14.90;99.90;;;;;;4966795;28;20050;-62
2024/03/31 11:33:06;;;;;;;19.13;7.45;;;14.80;99.90;;;;;;4960287;28;20055;-60
2024/03/31 11:35:36;;;;;;;22.88;8.05;;;14.80;99.90;;;;;;4964605;28;20475;-61
2024/03/31 11:38:16;;;;;;;17.73;8.40;;;14.90;99.90;;;;;;4958194;28;20042;-61
2024/03/31 11:40:42;;;;;;;18.50;7.50;;;15.00;99.90;;;;;;4965196;28;20047;-61
2024/03/31 11:43:08;;;;;;;21.92;8.00;;;15.20;99.90;;;;;;4965464;28;20290;-61
2024/03/31 11:45:35;;;;;;;20.58;8.40;;;15.50;99.90;;;;;;4967262;28;20069;-61
2024/03/31 11:48:04;;;;;;;20.15;8.00;;;15.50;99.90;;;;;;4963266;28;20055;-61
2024/03/31 11:50:31;;;;;;;18.48;8.20;;;15.60;99.90;;;;;;4962386;28;20058;-61
2024/03/31 11:52:56;;;;;;;18.67;8.63;;;15.70;99.90;;;;;;4955716;28;20495;-61
2024/03/31 11:55:22;;;;;;;37.30;15.00;;;16.10;99.90;;;;;;4970362;28;20055;-61
2024/03/31 11:57:48;;;;;;;34.35;15.77;;;16.20;99.90;;;;;;4960646;28;20058;-61
2024/03/31 12:00:15;;;;;;;29.83;12.48;;;15.80;99.90;;;;;;4964081;28;20057;-61
2024/03/31 12:02:41;;;;;;;19.33;8.75;;;15.60;99.90;;;;;;4966533;28;20061;-61
2024/03/31 12:05:20;;;;;;;26.23;9.02;;;15.40;99.90;;;;;;4958371;28;20059;-61
2024/03/31 12:07:47;;;;;;;29.98;9.13;;;15.40;99.90;;;;;;4960322;28;20058;-61
2024/03/31 12:10:18;;;;;;;19.00;9.05;;;15.70;99.90;;;;;;4966813;28;20411;-61
2024/03/31 12:12:44;;;;;;;22.00;7.80;;;16.10;99.90;;;;;;4969556;28;20422;-61
2024/03/31 12:15:12;;;;;;;16.00;7.70;;;16.30;99.90;;;;;;4964614;28;20054;-61
2024/03/31 12:17:38;;;;;;;17.95;6.80;;;16.40;99.90;;;;;;4965596;28;20058;-61
2024/03/31 12:20:10;;;;;;;23.83;7.30;;;16.40;99.90;;;;;;4965601;28;20058;-61
2024/03/31 12:22:40;;;;;;;19.73;5.45;;;16.20;99.90;;;;;;4956919;28;20046;-61
2024/03/31 12:25:10;;;;;;;21.63;9.13;;;16.00;99.90;;;;;;4961054;28;20049;-61
2024/03/31 12:27:36;;;;;;;35.55;16.75;;;15.90;99.90;;;;;;4960092;28;20458;-61
2024/03/31 12:30:04;;;;;;;31.77;11.63;;;15.60;99.90;;;;;;4965285;28;20096;-61
2024/03/31 12:32:30;;;;;;;35.40;15.88;;;15.30;99.90;;;;;;4956752;28;20076;-61
2024/03/31 12:34:57;;;;;;;50.15;24.73;;;15.00;99.90;;;;;;4956838;28;21981;-61